Time;durP1;ratioP1;P1;durP2;ratioP2;P2;SDS_P1;SDS_P2;PMS_P1;PMS_P2;Temp;Humidity;BMP_temperature;BMP_pressure;BME280_temperature;BME280_humidity;BME280_pressure;Samples;Min_cycle;Max_cycle;Signal;HPM_P1;HPM_P2
2021/11/25 00:02:26;;;;;;;29.40;19.30;;;2.30;99.90;;;;;;6325186;28;20476;-65
2021/11/25 00:05:29;;;;;;;24.77;19.83;;;2.30;99.90;;;;;;6325135;28;20931;-65
2021/11/25 00:08:32;;;;;;;24.13;18.43;;;2.30;99.90;;;;;;6324752;28;20476;-65
2021/11/25 00:11:36;;;;;;;25.73;20.97;;;2.30;99.90;;;;;;6320634;28;20475;-65
2021/11/25 00:14:40;;;;;;;28.60;21.60;;;2.40;99.90;;;;;;6325386;28;20472;-64
2021/11/25 00:17:44;;;;;;;30.27;22.07;;;2.40;99.90;;;;;;6324830;28;20917;-65
2021/11/25 00:20:47;;;;;;;31.73;24.17;;;2.40;99.90;;;;;;6324889;28;20475;-65
2021/11/25 00:23:50;;;;;;;32.53;22.23;;;2.50;99.90;;;;;;6324765;27;20483;-64
2021/11/25 00:26:53;;;;;;;27.10;18.50;;;2.50;99.90;;;;;;6324672;28;20963;-65
2021/11/25 00:29:58;;;;;;;25.80;18.80;;;2.60;99.90;;;;;;6325097;28;20468;-64
2021/11/25 00:33:01;;;;;;;28.40;21.20;;;2.60;99.90;;;;;;6325184;28;20468;-64
2021/11/25 00:36:05;;;;;;;23.50;17.67;;;2.60;99.80;;;;;;6324683;28;20472;-64
2021/11/25 00:39:08;;;;;;;29.17;19.20;;;2.70;99.80;;;;;;6324681;28;20499;-64
2021/11/25 00:42:11;;;;;;;24.23;18.60;;;2.60;99.70;;;;;;6323914;28;20958;-68
2021/11/25 00:45:19;;;;;;;23.37;17.63;;;2.60;99.50;;;;;;6323507;28;20921;-68
2021/11/25 00:48:22;;;;;;;24.13;19.47;;;2.60;99.80;;;;;;6323086;28;20491;-67
2021/11/25 00:51:25;;;;;;;25.00;17.77;;;2.60;99.90;;;;;;6322426;28;20456;-66
2021/11/25 00:54:29;;;;;;;25.90;20.13;;;2.60;99.90;;;;;;6322565;28;20593;-66
2021/11/25 00:57:32;;;;;;;27.17;23.00;;;2.50;99.80;;;;;;6322794;28;20594;-67
2021/11/25 01:00:37;;;;;;;30.37;21.90;;;2.50;99.90;;;;;;6323258;28;20457;-68
2021/11/25 01:03:41;;;;;;;27.20;21.53;;;2.40;99.90;;;;;;6323436;28;20796;-66
2021/11/25 01:06:44;;;;;;;25.93;20.67;;;2.40;99.90;;;;;;6321429;28;20468;-66
2021/11/25 01:09:47;;;;;;;25.43;20.97;;;2.40;99.90;;;;;;6321751;28;20810;-67
2021/11/25 01:12:52;;;;;;;29.13;22.37;;;2.50;99.90;;;;;;6322775;28;20472;-67
2021/11/25 01:15:57;;;;;;;39.57;25.10;;;2.50;99.90;;;;;;6326922;28;20479;-67
2021/11/25 01:19:00;;;;;;;29.43;23.80;;;2.40;99.90;;;;;;6328931;28;20817;-66
2021/11/25 01:22:04;;;;;;;35.53;21.80;;;2.30;99.90;;;;;;6329908;28;20479;-66
2021/11/25 01:25:08;;;;;;;28.93;23.70;;;2.30;99.90;;;;;;6329383;28;20487;-67
2021/11/25 01:28:13;;;;;;;29.97;22.73;;;2.40;99.90;;;;;;6329404;28;20468;-67
2021/11/25 01:31:17;;;;;;;36.80;23.00;;;2.30;99.90;;;;;;6328794;28;20783;-67
2021/11/25 01:34:21;;;;;;;30.87;23.10;;;2.30;99.90;;;;;;6329511;28;20508;-67
2021/11/25 01:37:27;;;;;;;29.80;21.70;;;2.30;99.90;;;;;;6329610;28;20939;-68
2021/11/25 01:40:30;;;;;;;30.70;20.00;;;2.30;99.90;;;;;;6329507;28;20468;-68
2021/11/25 01:43:38;;;;;;;25.70;21.37;;;2.40;99.90;;;;;;6329204;28;20472;-67
2021/11/25 01:46:42;;;;;;;30.27;23.20;;;2.50;99.90;;;;;;6328247;28;20476;-68
2021/11/25 01:49:46;;;;;;;26.80;20.40;;;2.50;99.90;;;;;;6326206;28;20969;-67
2021/11/25 01:52:49;;;;;;;27.77;21.77;;;2.50;99.90;;;;;;6328178;28;20471;-67
2021/11/25 01:55:52;;;;;;;30.97;22.60;;;2.50;99.90;;;;;;6325915;28;20521;-67
2021/11/25 01:58:56;;;;;;;31.23;22.87;;;2.50;99.90;;;;;;6329054;28;20467;-67
2021/11/25 02:02:01;;;;;;;27.10;20.97;;;2.50;99.90;;;;;;6329655;28;20464;-67
2021/11/25 02:05:05;;;;;;;27.47;21.30;;;2.50;99.90;;;;;;6329576;28;20513;-67
2021/11/25 02:08:08;;;;;;;32.57;22.10;;;2.60;99.90;;;;;;6326232;28;20491;-69
2021/11/25 02:11:11;;;;;;;29.73;21.43;;;2.60;99.90;;;;;;6329860;28;20460;-68
2021/11/25 02:14:15;;;;;;;28.40;22.83;;;2.70;99.90;;;;;;6329401;28;20463;-68
2021/11/25 02:17:19;;;;;;;36.17;26.00;;;2.80;99.90;;;;;;6329385;28;20472;-67
2021/11/25 02:20:22;;;;;;;28.77;22.53;;;2.70;99.90;;;;;;6328812;28;20468;-67
2021/11/25 02:23:28;;;;;;;28.80;21.70;;;2.70;99.90;;;;;;6328748;28;20561;-67
2021/11/25 02:26:31;;;;;;;25.33;20.53;;;2.80;99.90;;;;;;6327275;28;20473;-67
2021/11/25 02:29:34;;;;;;;28.80;19.30;;;2.80;99.90;;;;;;6328796;28;20473;-68
2021/11/25 02:32:41;;;;;;;29.20;19.93;;;2.80;99.90;;;;;;6328364;28;20768;-68
2021/11/25 02:35:45;;;;;;;26.03;20.37;;;2.80;99.90;;;;;;6327834;28;20473;-68
2021/11/25 02:38:50;;;;;;;29.77;22.37;;;2.80;99.90;;;;;;6328051;28;20472;-67
2021/11/25 02:41:53;;;;;;;34.63;22.87;;;2.80;99.90;;;;;;6328386;28;20554;-67
2021/11/25 02:44:56;;;;;;;30.23;20.77;;;2.80;99.90;;;;;;6328326;28;20461;-66
2021/11/25 02:48:00;;;;;;;29.67;23.80;;;2.80;99.90;;;;;;6327567;28;20994;-66
2021/11/25 02:51:03;;;;;;;33.67;24.03;;;2.80;99.90;;;;;;6327928;28;20472;-68
2021/11/25 02:54:08;;;;;;;32.53;23.47;;;2.80;99.90;;;;;;6327372;28;20968;-68
2021/11/25 02:57:11;;;;;;;34.47;22.63;;;2.80;99.90;;;;;;6327603;28;20468;-68
2021/11/25 03:00:34;;;;;;;34.77;23.10;;;2.80;99.90;;;;;;6303725;28;20460;-67
2021/11/25 03:03:37;;;;;;;32.43;22.00;;;2.90;99.90;;;;;;6302529;28;20786;-68
2021/11/25 03:06:40;;;;;;;36.80;22.63;;;2.70;99.90;;;;;;6302208;28;20984;-67
2021/11/25 03:09:45;;;;;;;33.17;22.83;;;2.70;99.90;;;;;;6303130;28;20472;-67
2021/11/25 03:12:48;;;;;;;34.50;21.60;;;2.70;99.90;;;;;;6302900;28;20461;-67
2021/11/25 03:15:52;;;;;;;28.70;22.87;;;2.70;99.90;;;;;;6302244;28;20473;-68
2021/11/25 03:18:56;;;;;;;34.43;21.67;;;2.70;99.90;;;;;;6302517;28;20484;-68
2021/11/25 03:21:59;;;;;;;35.17;22.60;;;2.70;99.90;;;;;;6302189;28;20480;-68
2021/11/25 03:25:05;;;;;;;34.00;22.37;;;2.60;99.90;;;;;;6301600;28;21106;-69
2021/11/25 03:28:08;;;;;;;32.07;22.33;;;2.60;99.90;;;;;;6301806;28;20465;-67
2021/11/25 03:31:12;;;;;;;31.40;20.73;;;2.60;99.90;;;;;;6301718;28;20476;-67
2021/11/25 03:34:15;;;;;;;30.00;22.13;;;2.60;99.90;;;;;;6302016;28;20472;-67
2021/11/25 03:37:18;;;;;;;30.80;22.00;;;2.50;99.90;;;;;;6301227;28;20492;-67
2021/11/25 03:40:23;;;;;;;33.13;21.43;;;2.40;99.90;;;;;;6301381;28;20469;-67
2021/11/25 03:43:27;;;;;;;30.97;22.07;;;2.30;99.90;;;;;;6301351;28;20468;-67
2021/11/25 03:46:33;;;;;;;37.93;24.23;;;2.30;99.90;;;;;;6301418;28;20981;-67
2021/11/25 03:49:36;;;;;;;37.30;23.47;;;2.30;99.90;;;;;;6301322;28;20530;-67
2021/11/25 03:52:40;;;;;;;33.97;22.40;;;2.30;99.90;;;;;;6301423;28;20469;-67
2021/11/25 03:55:44;;;;;;;36.17;23.60;;;2.30;99.90;;;;;;6301205;28;20477;-67
2021/11/25 03:58:48;;;;;;;30.53;22.00;;;2.40;99.90;;;;;;6300793;28;20472;-66
2021/11/25 04:01:51;;;;;;;34.33;21.67;;;2.40;99.90;;;;;;6301281;28;20472;-68
2021/11/25 04:04:54;;;;;;;31.60;23.27;;;2.50;99.90;;;;;;6300995;28;20483;-67
2021/11/25 04:07:58;;;;;;;31.43;22.17;;;2.50;99.90;;;;;;6300741;28;20956;-65
2021/11/25 04:11:02;;;;;;;33.10;22.83;;;2.50;99.90;;;;;;6300528;28;20481;-66
2021/11/25 04:14:05;;;;;;;31.73;22.10;;;2.50;99.90;;;;;;6301092;28;20473;-68
2021/11/25 04:17:09;;;;;;;33.90;22.83;;;2.50;99.90;;;;;;6301559;28;20477;-66
2021/11/25 04:20:14;;;;;;;35.37;22.87;;;2.50;99.90;;;;;;6300741;28;20492;-66
2021/11/25 04:23:17;;;;;;;33.63;21.67;;;2.60;99.90;;;;;;6300516;28;20465;-67
2021/11/25 04:26:21;;;;;;;30.37;21.67;;;2.60;99.90;;;;;;6291107;28;20538;-66
2021/11/25 04:29:25;;;;;;;27.27;20.90;;;2.60;99.90;;;;;;6300527;28;20785;-66
2021/11/25 04:35:49;;;;;;;29.50;21.63;;;2.60;99.90;;;;;;6300493;28;20802;-66
2021/11/25 04:38:52;;;;;;;34.30;23.73;;;2.60;99.90;;;;;;6300140;28;20485;-67
2021/11/25 04:41:57;;;;;;;33.30;21.90;;;2.70;99.90;;;;;;6299967;28;21018;-67
2021/11/25 04:45:00;;;;;;;27.37;20.77;;;2.70;99.90;;;;;;6300112;28;20542;-67
2021/11/25 04:48:04;;;;;;;33.10;20.83;;;2.70;99.90;;;;;;6300642;28;20485;-66
2021/11/25 04:51:07;;;;;;;27.53;19.93;;;2.70;99.90;;;;;;6299552;28;20552;-66
2021/11/25 04:54:10;;;;;;;30.03;22.00;;;2.80;99.90;;;;;;6300131;28;20465;-67
2021/11/25 04:57:15;;;;;;;29.63;20.83;;;2.80;99.90;;;;;;6299584;28;20497;-66
2021/11/25 05:00:21;;;;;;;30.43;20.60;;;2.80;99.90;;;;;;6300100;28;20457;-66
2021/11/25 05:03:24;;;;;;;31.10;20.17;;;2.80;99.90;;;;;;6300406;28;20437;-66
2021/11/25 05:06:27;;;;;;;31.30;20.57;;;2.80;99.90;;;;;;6300342;28;20472;-68
2021/11/25 05:09:30;;;;;;;29.87;18.67;;;2.80;99.90;;;;;;6300056;28;20469;-67
2021/11/25 05:12:36;;;;;;;25.60;18.80;;;2.80;99.90;;;;;;6301027;28;20445;-67
2021/11/25 05:15:40;;;;;;;16.43;13.73;;;2.80;99.90;;;;;;6300789;28;20504;-67
2021/11/25 05:18:43;;;;;;;15.07;12.20;;;2.80;99.90;;;;;;6299994;28;20874;-68
2021/11/25 05:21:46;;;;;;;15.87;13.40;;;2.70;99.90;;;;;;6300524;28;20465;-67
2021/11/25 05:24:52;;;;;;;22.93;13.83;;;2.70;99.90;;;;;;6299714;28;20472;-67
2021/11/25 05:27:58;;;;;;;19.57;13.40;;;2.70;99.90;;;;;;6295206;28;20481;-67
2021/11/25 05:31:01;;;;;;;15.27;13.00;;;2.60;99.90;;;;;;6299437;28;20538;-67
2021/11/25 05:34:04;;;;;;;19.73;13.43;;;2.70;99.90;;;;;;6300066;28;20472;-67
2021/11/25 05:37:07;;;;;;;25.40;14.20;;;2.70;99.90;;;;;;6299530;28;20488;-67
2021/11/25 05:40:13;;;;;;;19.37;13.60;;;2.70;99.90;;;;;;6299582;28;20471;-67
2021/11/25 05:43:18;;;;;;;21.73;14.80;;;2.70;99.90;;;;;;6304734;28;21052;-67
2021/11/25 05:46:21;;;;;;;18.27;13.47;;;2.70;99.90;;;;;;6306319;28;20469;-67
2021/11/25 05:49:24;;;;;;;21.60;13.30;;;2.70;99.90;;;;;;6305665;28;20466;-67
2021/11/25 05:52:27;;;;;;;22.70;13.23;;;2.70;99.90;;;;;;6301508;28;20483;-69
2021/11/25 05:55:30;;;;;;;16.73;12.90;;;2.60;99.90;;;;;;6298938;28;20484;-67
2021/11/25 05:58:35;;;;;;;18.43;13.70;;;2.50;99.90;;;;;;6299455;28;20477;-67
2021/11/25 06:01:38;;;;;;;17.47;12.93;;;2.40;99.90;;;;;;6302137;28;20477;-67
2021/11/25 06:04:42;;;;;;;16.97;12.70;;;2.30;99.90;;;;;;6303498;28;20808;-68
2021/11/25 06:07:46;;;;;;;17.73;13.30;;;2.30;99.90;;;;;;6303600;28;20477;-68
2021/11/25 06:10:49;;;;;;;17.27;12.23;;;2.30;99.90;;;;;;6303679;28;20497;-67
2021/11/25 06:13:54;;;;;;;14.77;11.33;;;2.40;99.90;;;;;;6303820;28;20465;-67
2021/11/25 06:16:57;;;;;;;22.13;11.33;;;2.50;99.90;;;;;;6303515;28;20496;-67
2021/11/25 06:20:01;;;;;;;16.20;10.80;;;2.50;99.90;;;;;;6303395;28;20963;-67
2021/11/25 06:23:04;;;;;;;17.53;13.33;;;2.50;99.90;;;;;;6303285;28;20485;-67
2021/11/25 06:26:07;;;;;;;22.00;12.33;;;2.60;99.90;;;;;;6303195;28;20469;-67
2021/11/25 06:29:12;;;;;;;13.43;10.00;;;2.60;99.90;;;;;;6303117;27;20505;-67
2021/11/25 06:32:16;;;;;;;17.80;11.90;;;2.60;99.90;;;;;;6298903;28;20487;-67
2021/11/25 06:35:20;;;;;;;18.17;12.80;;;2.70;99.90;;;;;;6303163;27;20477;-67
2021/11/25 06:38:23;;;;;;;14.80;11.27;;;2.70;99.90;;;;;;6302810;28;20485;-68
2021/11/25 06:41:27;;;;;;;15.80;12.50;;;2.80;99.90;;;;;;6302859;28;20469;-67
2021/11/25 06:44:31;;;;;;;17.80;12.33;;;2.80;99.70;;;;;;6302973;28;20473;-67
2021/11/25 06:47:36;;;;;;;15.17;11.70;;;2.90;99.60;;;;;;6302746;28;20812;-67
2021/11/25 06:50:39;;;;;;;16.70;12.00;;;2.90;99.20;;;;;;6302959;28;20492;-67
2021/11/25 06:53:42;;;;;;;21.40;11.80;;;3.00;99.30;;;;;;6302638;28;20547;-68
2021/11/25 06:56:45;;;;;;;15.90;12.47;;;3.00;99.30;;;;;;6302267;28;20477;-67
2021/11/25 06:59:50;;;;;;;19.73;12.23;;;3.00;99.20;;;;;;6302177;28;20797;-67
2021/11/25 07:02:54;;;;;;;16.07;11.77;;;3.10;99.30;;;;;;6301949;28;20468;-67
2021/11/25 07:05:57;;;;;;;15.30;12.13;;;3.10;99.30;;;;;;6301891;28;20488;-67
2021/11/25 07:09:00;;;;;;;16.33;13.40;;;3.10;99.20;;;;;;6302366;28;20476;-67
2021/11/25 07:12:04;;;;;;;15.43;12.90;;;3.10;99.10;;;;;;6301526;28;20976;-67
2021/11/25 07:15:12;;;;;;;15.50;11.90;;;3.20;99.10;;;;;;6301522;28;21102;-67
2021/11/25 07:18:15;;;;;;;18.60;14.03;;;3.30;99.20;;;;;;6302066;28;20484;-67
2021/11/25 07:21:18;;;;;;;15.53;12.23;;;3.30;98.90;;;;;;6301608;28;20460;-68
2021/11/25 07:24:21;;;;;;;15.37;11.33;;;3.40;99.00;;;;;;6301475;28;20925;-68
2021/11/25 07:27:24;;;;;;;24.37;13.30;;;3.40;98.90;;;;;;6300967;28;20473;-68
2021/11/25 07:30:29;;;;;;;16.03;11.60;;;3.50;98.80;;;;;;6302451;28;20491;-67
2021/11/25 07:33:32;;;;;;;16.00;13.07;;;3.50;98.50;;;;;;6301248;28;20508;-67
2021/11/25 07:36:36;;;;;;;18.67;13.03;;;3.50;98.50;;;;;;6296501;28;20480;-67
2021/11/25 07:39:39;;;;;;;17.47;12.40;;;3.50;98.60;;;;;;6301808;28;20464;-68
2021/11/25 07:42:44;;;;;;;19.07;14.50;;;3.60;98.60;;;;;;6301574;28;21028;-67
2021/11/25 07:45:48;;;;;;;18.47;14.20;;;3.60;98.40;;;;;;6301332;28;20476;-67
2021/11/25 07:48:51;;;;;;;20.43;14.73;;;3.70;98.60;;;;;;6301035;28;20823;-67
2021/11/25 07:51:59;;;;;;;22.33;16.13;;;3.80;98.30;;;;;;6300952;28;20543;-67
2021/11/25 07:55:03;;;;;;;23.83;16.70;;;3.90;98.40;;;;;;6301314;28;20474;-68
2021/11/25 07:58:06;;;;;;;27.37;17.33;;;4.00;98.40;;;;;;6301277;28;20469;-67
2021/11/25 08:01:11;;;;;;;24.10;18.00;;;4.00;98.50;;;;;;6300976;28;20473;-67
2021/11/25 08:04:14;;;;;;;31.83;18.93;;;4.10;98.50;;;;;;6300908;28;21004;-68
2021/11/25 08:07:17;;;;;;;26.70;17.30;;;4.30;98.40;;;;;;6300289;28;20543;-67
2021/11/25 08:10:20;;;;;;;28.63;18.97;;;4.40;97.70;;;;;;6300592;28;20472;-67
2021/11/25 08:13:24;;;;;;;25.77;17.30;;;4.60;97.50;;;;;;6300558;28;20475;-67
2021/11/25 08:16:29;;;;;;;24.37;16.90;;;4.70;97.10;;;;;;6300941;28;20476;-67
2021/11/25 08:19:32;;;;;;;32.13;19.60;;;5.00;97.40;;;;;;6300562;28;20473;-67
2021/11/25 08:22:36;;;;;;;29.30;20.57;;;5.20;96.70;;;;;;6300639;28;20960;-67
2021/11/25 08:25:39;;;;;;;28.50;19.63;;;5.50;96.40;;;;;;6300377;28;20948;-67
2021/11/25 08:28:42;;;;;;;30.30;20.67;;;5.50;95.60;;;;;;6300088;28;20468;-67
2021/11/25 08:31:47;;;;;;;38.57;23.20;;;5.30;96.20;;;;;;6299679;28;20496;-67
2021/11/25 08:34:50;;;;;;;27.73;22.07;;;5.30;96.30;;;;;;6299950;28;20539;-67
2021/11/25 08:37:54;;;;;;;41.33;22.80;;;5.50;96.00;;;;;;6299804;28;20479;-67
2021/11/25 08:40:57;;;;;;;35.10;23.63;;;5.30;96.00;;;;;;6290206;28;20945;-67
2021/11/25 08:44:00;;;;;;;40.07;23.87;;;5.40;96.40;;;;;;6300246;27;20477;-67
2021/11/25 08:47:05;;;;;;;43.10;26.73;;;5.60;96.10;;;;;;6299667;28;20484;-67
2021/11/25 08:50:11;;;;;;;36.47;24.67;;;5.50;96.10;;;;;;6300136;28;20796;-67
2021/11/25 08:53:14;;;;;;;41.10;24.67;;;5.80;96.70;;;;;;6299480;28;20477;-68
2021/11/25 08:56:17;;;;;;;45.97;29.77;;;6.00;95.80;;;;;;6300451;28;20469;-68
2021/11/25 08:59:21;;;;;;;52.77;34.10;;;6.00;95.30;;;;;;6300045;28;20465;-68
2021/11/25 09:02:26;;;;;;;45.63;27.30;;;6.00;95.40;;;;;;6292767;28;20473;-70
2021/11/25 09:05:31;;;;;;;71.00;42.07;;;6.10;95.40;;;;;;6281469;28;20564;-69
2021/11/25 09:08:35;;;;;;;90.93;48.60;;;6.20;95.40;;;;;;6319045;28;20468;-69
2021/11/25 09:11:39;;;;;;;89.40;47.30;;;6.50;95.60;;;;;;6305758;28;20484;-66
2021/11/25 09:14:42;;;;;;;103.87;56.43;;;6.70;94.70;;;;;;6299770;28;20544;-67
2021/11/25 09:17:48;;;;;;;135.27;70.30;;;7.00;94.50;;;;;;6310910;28;20472;-68
2021/11/25 09:20:58;;;;;;;57.67;35.00;;;7.20;93.70;;;;;;6299682;28;20476;-67
2021/11/25 09:24:04;;;;;;;67.37;40.73;;;7.30;92.80;;;;;;6299328;28;20461;-68
2021/11/25 09:27:08;;;;;;;50.13;34.33;;;7.30;93.20;;;;;;6299691;28;20473;-68
2021/11/25 09:30:11;;;;;;;40.53;28.80;;;7.50;92.30;;;;;;6316968;28;20548;-69
2021/11/25 09:33:17;;;;;;;41.87;27.67;;;7.30;92.50;;;;;;6324407;28;20482;-69
2021/11/25 09:36:21;;;;;;;41.57;28.73;;;7.00;93.20;;;;;;6327082;28;20459;-69
2021/11/25 09:39:28;;;;;;;49.97;28.50;;;6.90;93.30;;;;;;6328679;28;20478;-68
2021/11/25 09:42:31;;;;;;;37.23;28.43;;;7.00;93.60;;;;;;6324977;28;20436;-68
2021/11/25 09:45:37;;;;;;;42.97;28.10;;;7.20;93.30;;;;;;6328658;28;20487;-67
2021/11/25 09:48:41;;;;;;;46.73;29.77;;;7.30;92.70;;;;;;6328817;28;20456;-68
2021/11/25 09:51:45;;;;;;;38.83;27.07;;;7.80;92.80;;;;;;6328996;28;20485;-68
2021/11/25 09:54:48;;;;;;;38.07;26.63;;;8.10;91.50;;;;;;6329126;28;20476;-68
2021/11/25 09:57:52;;;;;;;38.83;27.20;;;7.80;91.70;;;;;;6329175;28;20923;-65
2021/11/25 10:00:58;;;;;;;33.90;25.43;;;7.90;91.60;;;;;;6329107;28;20521;-67
2021/11/25 10:04:03;;;;;;;41.67;26.90;;;8.00;91.20;;;;;;6324064;27;20482;-66
2021/11/25 10:07:06;;;;;;;40.33;26.50;;;8.20;91.10;;;;;;6326912;28;20686;-66
2021/11/25 10:10:26;;;;;;;34.63;26.17;;;8.40;90.30;;;;;;6328533;28;20482;-65
2021/11/25 10:13:39;;;;;;;36.90;26.87;;;8.50;89.60;;;;;;6328626;28;20613;-68
2021/11/25 10:16:45;;;;;;;39.40;26.67;;;8.60;90.00;;;;;;6328354;28;20480;-67
2021/11/25 10:20:06;;;;;;;36.13;26.57;;;8.60;87.90;;;;;;6328435;28;20810;-67
2021/11/25 10:23:17;;;;;;;34.13;24.90;;;8.30;88.10;;;;;;6328412;28;20468;-68
2021/11/25 10:26:22;;;;;;;35.30;26.60;;;8.10;89.20;;;;;;6327509;28;20468;-67
2021/11/25 10:29:25;;;;;;;38.10;25.83;;;8.00;89.50;;;;;;6327956;28;20463;-66
2021/11/25 10:32:28;;;;;;;40.30;25.67;;;8.00;90.30;;;;;;6326798;28;20476;-67
2021/11/25 10:35:44;;;;;;;34.87;25.87;;;7.90;90.20;;;;;;6328245;28;20475;-66
2021/11/25 10:38:59;;;;;;;35.53;25.03;;;8.00;90.40;;;;;;6328269;28;20936;-67
2021/11/25 10:42:06;;;;;;;40.73;26.37;;;8.10;90.40;;;;;;6330071;28;20456;-64
2021/11/25 10:45:12;;;;;;;33.57;25.10;;;8.50;90.00;;;;;;6330335;28;20468;-68
2021/11/25 10:48:28;;;;;;;39.53;24.77;;;8.70;87.50;;;;;;6322357;28;20785;-67
2021/11/25 10:51:35;;;;;;;33.33;24.97;;;8.90;86.40;;;;;;6328196;28;20433;-65
2021/11/25 10:54:43;;;;;;;44.30;27.30;;;9.00;86.40;;;;;;6326888;28;20491;-66
2021/11/25 10:57:49;;;;;;;33.33;25.57;;;9.10;86.80;;;;;;6326009;28;20537;-66
2021/11/25 11:00:52;;;;;;;34.83;25.57;;;10.50;84.60;;;;;;6325872;28;20475;-66
2021/11/25 11:03:59;;;;;;;31.60;25.63;;;13.60;71.60;;;;;;6324598;28;20460;-66
2021/11/25 11:07:21;;;;;;;30.87;25.70;;;16.00;60.00;;;;;;6325753;27;20465;-66
2021/11/25 11:10:27;;;;;;;28.03;24.17;;;18.80;50.80;;;;;;6326372;27;20472;-66
2021/11/25 11:13:40;;;;;;;31.00;27.00;;;21.10;43.80;;;;;;6326956;28;20476;-66
2021/11/25 11:16:46;;;;;;;29.17;26.00;;;22.20;39.40;;;;;;6327009;28;20226;-66
2021/11/25 11:20:08;;;;;;;28.67;25.30;;;23.00;36.30;;;;;;6311485;28;20234;-66
2021/11/25 11:23:13;;;;;;;31.53;28.30;;;23.10;34.40;;;;;;6301621;28;20223;-66
2021/11/25 11:26:17;;;;;;;32.80;27.43;;;22.90;33.90;;;;;;6302290;28;20309;-66
2021/11/25 11:29:22;;;;;;;31.97;28.50;;;22.70;33.90;;;;;;6301576;28;20310;-66
2021/11/25 11:32:26;;;;;;;35.70;32.13;;;22.80;33.10;;;;;;6301210;28;20561;-67
2021/11/25 11:35:30;;;;;;;36.33;30.37;;;22.00;33.40;;;;;;6301371;28;20235;-67
2021/11/25 11:38:37;;;;;;;32.20;28.40;;;21.70;33.80;;;;;;6301085;28;20239;-67
2021/11/25 11:41:41;;;;;;;32.93;28.80;;;22.00;33.50;;;;;;6301655;28;20575;-67
2021/11/25 11:44:45;;;;;;;28.33;25.23;;;21.60;33.70;;;;;;6301624;28;20234;-68
2021/11/25 11:47:54;;;;;;;30.63;27.50;;;22.20;33.40;;;;;;6301030;28;20245;-67
2021/11/25 11:50:58;;;;;;;30.90;27.80;;;22.60;32.90;;;;;;6315670;28;20548;-67
2021/11/25 11:54:03;;;;;;;33.30;29.77;;;23.60;31.60;;;;;;6321468;28;20657;-67
2021/11/25 11:57:27;;;;;;;31.17;27.87;;;22.20;32.00;;;;;;6325892;28;20234;-67
2021/11/25 12:00:37;;;;;;;30.43;27.40;;;22.40;32.50;;;;;;6300366;28;20274;-67
2021/11/25 12:03:44;;;;;;;30.17;27.07;;;22.10;32.10;;;;;;6303419;28;20280;-67
2021/11/25 12:06:49;;;;;;;32.47;27.13;;;22.70;31.70;;;;;;6321975;28;20228;-67
2021/11/25 12:09:56;;;;;;;32.63;29.30;;;23.70;30.90;;;;;;6304530;28;20230;-67
2021/11/25 12:13:04;;;;;;;29.20;26.10;;;23.90;30.60;;;;;;6319926;28;20234;-67
2021/11/25 12:16:26;;;;;;;28.90;25.80;;;23.40;30.90;;;;;;6296366;28;20566;-67
2021/11/25 12:19:32;;;;;;;29.10;26.17;;;23.90;30.00;;;;;;6300654;28;20247;-67
2021/11/25 12:22:47;;;;;;;31.17;27.97;;;24.00;30.00;;;;;;6298883;28;20226;-67
2021/11/25 12:25:57;;;;;;;30.23;27.20;;;23.80;30.00;;;;;;6299831;28;20231;-67
2021/11/25 12:29:00;;;;;;;29.07;25.93;;;24.30;29.70;;;;;;6296782;28;20227;-67
2021/11/25 12:32:28;;;;;;;29.03;25.83;;;24.30;29.50;;;;;;6300004;28;20222;-70
2021/11/25 12:35:42;;;;;;;36.43;29.40;;;24.80;29.30;;;;;;6300225;28;20238;-70
2021/11/25 12:38:46;;;;;;;29.73;26.73;;;24.10;29.40;;;;;;6301102;28;20571;-70
2021/11/25 12:41:50;;;;;;;28.83;25.50;;;23.70;29.50;;;;;;6300500;28;20710;-66
2021/11/25 12:44:54;;;;;;;28.63;25.57;;;22.40;29.90;;;;;;6301528;28;20233;-66
2021/11/25 12:48:13;;;;;;;28.90;24.60;;;21.00;31.70;;;;;;6303914;28;20253;-65
2021/11/25 12:51:18;;;;;;;28.53;25.60;;;20.00;32.70;;;;;;6302158;28;20241;-65
2021/11/25 12:54:22;;;;;;;27.20;22.87;;;19.30;34.50;;;;;;6297760;28;20647;-65
2021/11/25 12:57:26;;;;;;;28.37;24.63;;;19.70;34.40;;;;;;6304397;28;20218;-65
2021/11/25 13:00:33;;;;;;;27.90;23.77;;;20.60;33.30;;;;;;6298272;28;20584;-67
2021/11/25 13:03:36;;;;;;;25.43;22.60;;;20.90;32.30;;;;;;6303942;28;20230;-65
2021/11/25 13:06:42;;;;;;;25.00;22.30;;;20.40;32.50;;;;;;6326817;27;20226;-67
2021/11/25 13:09:46;;;;;;;26.77;21.57;;;19.20;33.60;;;;;;6325411;28;20234;-68
2021/11/25 13:12:51;;;;;;;27.83;22.07;;;17.80;35.20;;;;;;6325859;28;20807;-66
2021/11/25 13:15:59;;;;;;;25.83;22.00;;;17.00;37.30;;;;;;6323910;28;20777;-67
2021/11/25 13:19:05;;;;;;;25.70;22.90;;;16.20;38.80;;;;;;6324720;28;20464;-66
2021/11/25 13:22:12;;;;;;;29.77;22.57;;;15.70;39.70;;;;;;6325187;28;20482;-67
2021/11/25 13:25:18;;;;;;;29.93;22.33;;;14.90;40.90;;;;;;6325165;28;20468;-66
2021/11/25 13:28:27;;;;;;;25.67;22.80;;;14.20;42.10;;;;;;6325480;28;20476;-67
2021/11/25 13:31:30;;;;;;;28.43;22.13;;;13.60;43.60;;;;;;6324897;28;20472;-65
2021/11/25 13:34:35;;;;;;;28.50;23.30;;;12.90;44.90;;;;;;6324737;28;20467;-68
2021/11/25 13:37:42;;;;;;;30.43;23.33;;;12.20;46.70;;;;;;6324114;28;20479;-68
2021/11/25 13:40:46;;;;;;;30.03;24.47;;;11.50;48.40;;;;;;6324858;28;20473;-67
2021/11/25 13:43:52;;;;;;;30.87;23.77;;;10.70;50.90;;;;;;6325096;28;20471;-67
2021/11/25 13:46:57;;;;;;;30.53;24.93;;;10.10;52.40;;;;;;6325092;28;20939;-68
2021/11/25 13:50:05;;;;;;;32.47;23.70;;;9.40;55.50;;;;;;6325122;28;20471;-66
2021/11/25 13:53:09;;;;;;;33.47;23.50;;;8.80;57.60;;;;;;6324530;28;20819;-68
2021/11/25 13:56:13;;;;;;;36.07;23.50;;;8.40;59.10;;;;;;6324704;28;20479;-70
2021/11/25 13:59:20;;;;;;;24.50;21.00;;;8.10;62.30;;;;;;6321159;28;20959;-68
2021/11/25 14:02:29;;;;;;;30.43;21.03;;;7.90;64.40;;;;;;6323972;28;20468;-69
2021/11/25 14:05:42;;;;;;;30.83;23.27;;;7.70;67.30;;;;;;6316686;28;20476;-68
2021/11/25 14:08:45;;;;;;;31.90;24.90;;;7.50;69.20;;;;;;6324559;28;20483;-68
2021/11/25 14:11:54;;;;;;;34.87;25.10;;;7.00;72.60;;;;;;6324626;28;20468;-68
2021/11/25 14:14:59;;;;;;;31.80;23.00;;;7.10;74.80;;;;;;6324244;28;20487;-68
2021/11/25 14:18:07;;;;;;;30.30;21.37;;;7.10;76.10;;;;;;6323902;28;20464;-69
2021/11/25 14:21:10;;;;;;;34.40;22.90;;;7.20;76.30;;;;;;6324455;28;20499;-69
2021/11/25 14:24:16;;;;;;;30.17;22.57;;;7.10;77.50;;;;;;6329314;28;20466;-69
2021/11/25 14:30:43;;;;;;;35.10;23.67;;;7.00;80.30;;;;;;6329099;28;20459;-68
2021/11/25 14:33:48;;;;;;;32.30;22.23;;;6.90;81.10;;;;;;6328211;28;20471;-68
2021/11/25 14:36:51;;;;;;;26.90;22.50;;;6.80;82.20;;;;;;6328355;28;20460;-68
2021/11/25 14:39:55;;;;;;;33.57;25.97;;;6.70;83.70;;;;;;6328018;28;20956;-69
2021/11/25 14:43:03;;;;;;;31.10;22.73;;;6.60;84.30;;;;;;6328000;28;20474;-70
2021/11/25 14:46:16;;;;;;;32.53;24.70;;;6.50;85.20;;;;;;6328399;28;20476;-67
2021/11/25 14:49:26;;;;;;;35.03;25.20;;;6.40;86.40;;;;;;6325050;28;20467;-69
2021/11/25 14:52:30;;;;;;;30.93;24.37;;;6.30;87.30;;;;;;6324748;28;20472;-68
2021/11/25 14:55:33;;;;;;;33.43;24.33;;;6.20;88.70;;;;;;6326768;28;20983;-68
2021/11/25 14:58:50;;;;;;;39.90;27.40;;;6.10;90.00;;;;;;6326977;28;20475;-68
2021/11/25 15:01:55;;;;;;;36.37;24.47;;;5.90;90.80;;;;;;6326629;28;20476;-68
2021/11/25 15:05:00;;;;;;;34.93;23.40;;;5.80;91.20;;;;;;6311225;28;20994;-68
2021/11/25 15:08:05;;;;;;;38.17;23.57;;;5.70;91.50;;;;;;6326507;27;20472;-68
2021/11/25 15:11:08;;;;;;;35.17;26.90;;;5.60;91.90;;;;;;6325783;28;20468;-70
2021/11/25 15:14:14;;;;;;;43.40;25.80;;;5.50;92.70;;;;;;6326341;28;20484;-68
2021/11/25 15:17:18;;;;;;;35.80;25.37;;;5.50;93.00;;;;;;6325826;28;20483;-68
2021/11/25 15:20:22;;;;;;;37.73;25.53;;;5.40;93.40;;;;;;6325781;28;20480;-68
2021/11/25 15:23:26;;;;;;;36.77;24.87;;;5.30;94.00;;;;;;6325671;28;20464;-68
2021/11/25 15:26:30;;;;;;;35.93;24.87;;;5.30;94.40;;;;;;6325414;28;20468;-68
2021/11/25 15:29:33;;;;;;;36.23;23.27;;;5.20;94.90;;;;;;6325394;28;20464;-69
2021/11/25 15:32:38;;;;;;;38.50;24.87;;;5.20;95.10;;;;;;6325582;28;20967;-69
2021/11/25 15:35:43;;;;;;;34.80;25.40;;;5.20;95.30;;;;;;6325089;28;20488;-66
2021/11/25 15:38:47;;;;;;;36.90;24.70;;;5.20;95.60;;;;;;6325333;28;20528;-67
2021/11/25 15:41:50;;;;;;;36.13;26.57;;;5.20;95.80;;;;;;6324395;28;20472;-66
2021/11/25 15:44:53;;;;;;;41.60;27.07;;;5.20;96.00;;;;;;6324526;28;20940;-67
2021/11/25 15:47:58;;;;;;;35.80;24.97;;;5.20;96.00;;;;;;6325264;28;20487;-66
2021/11/25 15:51:03;;;;;;;39.20;27.03;;;5.20;96.00;;;;;;6324820;28;20487;-66
2021/11/25 15:54:07;;;;;;;40.00;28.17;;;5.20;96.10;;;;;;6324651;28;20514;-66
2021/11/25 15:57:14;;;;;;;42.90;28.90;;;5.20;96.20;;;;;;6326270;28;20808;-67